sensor_id;sensor_type;location;lat;lon;timestamp;temperature;humidity
21770;DHT22;11046;49.558;8.674;2023-06-14T00:02:48;17.00;48.60
21770;DHT22;11046;49.558;8.674;2023-06-14T00:05:48;17.00;48.60
21770;DHT22;11046;49.558;8.674;2023-06-14T00:08:49;17.00;48.70
21770;DHT22;11046;49.558;8.674;2023-06-14T00:11:49;17.00;48.70
21770;DHT22;11046;49.558;8.674;2023-06-14T00:14:50;17.00;48.80
21770;DHT22;11046;49.558;8.674;2023-06-14T00:17:51;17.10;48.70
21770;DHT22;11046;49.558;8.674;2023-06-14T00:20:51;17.10;48.60
21770;DHT22;11046;49.558;8.674;2023-06-14T00:23:52;17.10;48.60
21770;DHT22;11046;49.558;8.674;2023-06-14T00:26:52;17.10;48.60
21770;DHT22;11046;49.558;8.674;2023-06-14T00:29:53;17.20;48.50
21770;DHT22;11046;49.558;8.674;2023-06-14T00:32:53;17.20;48.50
21770;DHT22;11046;49.558;8.674;2023-06-14T00:35:54;17.30;48.50
21770;DHT22;11046;49.558;8.674;2023-06-14T00:38:55;17.30;48.40
21770;DHT22;11046;49.558;8.674;2023-06-14T00:41:56;17.40;48.50
21770;DHT22;11046;49.558;8.674;2023-06-14T00:44:58;17.40;48.10
21770;DHT22;11046;49.558;8.674;2023-06-14T00:48:00;17.50;48.10
21770;DHT22;11046;49.558;8.674;2023-06-14T00:51:02;17.50;48.10
21770;DHT22;11046;49.558;8.674;2023-06-14T00:54:04;17.50;48.00
21770;DHT22;11046;49.558;8.674;2023-06-14T00:57:05;17.60;48.00
21770;DHT22;11046;49.558;8.674;2023-06-14T01:00:06;17.60;48.00
21770;DHT22;11046;49.558;8.674;2023-06-14T01:03:09;17.50;47.90
21770;DHT22;11046;49.558;8.674;2023-06-14T01:13:02;17.60;48.00
21770;DHT22;11046;49.558;8.674;2023-06-14T01:16:07;17.60;48.10
21770;DHT22;11046;49.558;8.674;2023-06-14T01:19:11;17.60;47.90
21770;DHT22;11046;49.558;8.674;2023-06-14T01:22:14;17.60;47.90
21770;DHT22;11046;49.558;8.674;2023-06-14T01:25:15;17.60;47.70
21770;DHT22;11046;49.558;8.674;2023-06-14T01:28:16;17.60;47.80
21770;DHT22;11046;49.558;8.674;2023-06-14T01:31:20;17.70;47.80
21770;DHT22;11046;49.558;8.674;2023-06-14T01:34:22;17.70;47.70
21770;DHT22;11046;49.558;8.674;2023-06-14T01:37:25;17.70;47.70
21770;DHT22;11046;49.558;8.674;2023-06-14T01:40:27;17.70;47.60
21770;DHT22;11046;49.558;8.674;2023-06-14T01:43:30;17.70;47.70
21770;DHT22;11046;49.558;8.674;2023-06-14T01:46:31;17.70;47.70
21770;DHT22;11046;49.558;8.674;2023-06-14T01:49:34;17.70;47.70
21770;DHT22;11046;49.558;8.674;2023-06-14T01:52:37;17.60;47.60
21770;DHT22;11046;49.558;8.674;2023-06-14T01:55:37;17.70;47.50
21770;DHT22;11046;49.558;8.674;2023-06-14T01:58:41;17.70;47.50
21770;DHT22;11046;49.558;8.674;2023-06-14T02:01:41;17.60;47.50
21770;DHT22;11046;49.558;8.674;2023-06-14T02:04:43;17.60;47.50
21770;DHT22;11046;49.558;8.674;2023-06-14T02:07:43;17.60;47.60
21770;DHT22;11046;49.558;8.674;2023-06-14T02:10:44;17.50;47.60
21770;DHT22;11046;49.558;8.674;2023-06-14T02:13:44;17.50;47.60
21770;DHT22;11046;49.558;8.674;2023-06-14T02:16:46;17.60;47.60
21770;DHT22;11046;49.558;8.674;2023-06-14T02:19:49;17.60;47.50
21770;DHT22;11046;49.558;8.674;2023-06-14T02:22:50;17.60;47.40
21770;DHT22;11046;49.558;8.674;2023-06-14T02:25:51;17.70;47.40
21770;DHT22;11046;49.558;8.674;2023-06-14T02:28:51;17.70;47.40
21770;DHT22;11046;49.558;8.674;2023-06-14T02:31:52;17.70;47.40
21770;DHT22;11046;49.558;8.674;2023-06-14T02:34:55;17.60;47.40
21770;DHT22;11046;49.558;8.674;2023-06-14T02:37:55;17.60;47.30
21770;DHT22;11046;49.558;8.674;2023-06-14T02:40:56;17.60;47.30
21770;DHT22;11046;49.558;8.674;2023-06-14T02:43:57;17.50;47.50
21770;DHT22;11046;49.558;8.674;2023-06-14T02:46:59;17.50;47.50
21770;DHT22;11046;49.558;8.674;2023-06-14T02:50:01;17.60;47.60
21770;DHT22;11046;49.558;8.674;2023-06-14T02:53:02;17.50;47.50
21770;DHT22;11046;49.558;8.674;2023-06-14T02:56:04;17.50;47.50
21770;DHT22;11046;49.558;8.674;2023-06-14T02:59:04;17.50;47.70
21770;DHT22;11046;49.558;8.674;2023-06-14T03:02:06;17.40;47.60
21770;DHT22;11046;49.558;8.674;2023-06-14T03:05:08;17.40;47.80
21770;DHT22;11046;49.558;8.674;2023-06-14T03:08:10;17.30;47.90
21770;DHT22;11046;49.558;8.674;2023-06-14T03:11:11;17.20;48.00
21770;DHT22;11046;49.558;8.674;2023-06-14T03:14:12;17.20;48.10
21770;DHT22;11046;49.558;8.674;2023-06-14T03:17:14;17.20;48.10
21770;DHT22;11046;49.558;8.674;2023-06-14T03:20:15;17.30;48.10
21770;DHT22;11046;49.558;8.674;2023-06-14T03:23:16;17.30;48.20
21770;DHT22;11046;49.558;8.674;2023-06-14T03:26:17;17.20;48.20
21770;DHT22;11046;49.558;8.674;2023-06-14T03:29:19;17.30;48.10
21770;DHT22;11046;49.558;8.674;2023-06-14T03:32:20;17.20;48.20
21770;DHT22;11046;49.558;8.674;2023-06-14T03:35:21;17.20;48.50
21770;DHT22;11046;49.558;8.674;2023-06-14T03:38:23;17.10;48.40
21770;DHT22;11046;49.558;8.674;2023-06-14T03:41:25;17.20;48.50
21770;DHT22;11046;49.558;8.674;2023-06-14T03:44:27;17.10;48.60
21770;DHT22;11046;49.558;8.674;2023-06-14T03:47:28;17.10;48.70
21770;DHT22;11046;49.558;8.674;2023-06-14T03:50:29;17.10;48.80
21770;DHT22;11046;49.558;8.674;2023-06-14T03:53:30;17.10;48.80
21770;DHT22;11046;49.558;8.674;2023-06-14T03:56:32;17.10;48.80
21770;DHT22;11046;49.558;8.674;2023-06-14T03:59:32;17.10;48.70
21770;DHT22;11046;49.558;8.674;2023-06-14T04:02:33;17.10;48.90
21770;DHT22;11046;49.558;8.674;2023-06-14T04:05:34;17.10;48.90
21770;DHT22;11046;49.558;8.674;2023-06-14T04:08:35;17.10;49.10
21770;DHT22;11046;49.558;8.674;2023-06-14T04:11:35;17.00;49.10
21770;DHT22;11046;49.558;8.674;2023-06-14T04:14:37;17.00;49.10
21770;DHT22;11046;49.558;8.674;2023-06-14T04:17:38;17.00;49.20
21770;DHT22;11046;49.558;8.674;2023-06-14T04:20:40;17.10;49.40
21770;DHT22;11046;49.558;8.674;2023-06-14T04:23:43;17.00;49.40
21770;DHT22;11046;49.558;8.674;2023-06-14T04:26:45;17.10;49.50
21770;DHT22;11046;49.558;8.674;2023-06-14T04:29:49;17.00;49.70
21770;DHT22;11046;49.558;8.674;2023-06-14T04:32:57;16.90;49.90
21770;DHT22;11046;49.558;8.674;2023-06-14T04:35:59;16.90;50.10
21770;DHT22;11046;49.558;8.674;2023-06-14T04:39:01;16.80;50.20
21770;DHT22;11046;49.558;8.674;2023-06-14T04:42:04;16.70;50.40
21770;DHT22;11046;49.558;8.674;2023-06-14T04:45:08;16.80;50.40
21770;DHT22;11046;49.558;8.674;2023-06-14T04:48:12;16.70;50.60
21770;DHT22;11046;49.558;8.674;2023-06-14T04:51:12;16.70;50.70
21770;DHT22;11046;49.558;8.674;2023-06-14T04:54:13;16.70;50.80
21770;DHT22;11046;49.558;8.674;2023-06-14T04:57:14;16.70;50.90
21770;DHT22;11046;49.558;8.674;2023-06-14T05:00:20;16.70;51.10
21770;DHT22;11046;49.558;8.674;2023-06-14T05:03:22;16.70;51.30
21770;DHT22;11046;49.558;8.674;2023-06-14T05:06:22;16.70;51.50
21770;DHT22;11046;49.558;8.674;2023-06-14T05:09:23;16.70;51.50
21770;DHT22;11046;49.558;8.674;2023-06-14T05:12:24;16.70;51.50
21770;DHT22;11046;49.558;8.674;2023-06-14T05:15:25;16.80;51.50
21770;DHT22;11046;49.558;8.674;2023-06-14T05:18:28;16.80;51.60
21770;DHT22;11046;49.558;8.674;2023-06-14T05:21:28;16.90;51.70
21770;DHT22;11046;49.558;8.674;2023-06-14T05:24:29;16.90;51.80
21770;DHT22;11046;49.558;8.674;2023-06-14T05:27:32;17.00;51.80
21770;DHT22;11046;49.558;8.674;2023-06-14T05:30:36;17.10;51.80
21770;DHT22;11046;49.558;8.674;2023-06-14T05:33:36;17.20;51.70
21770;DHT22;11046;49.558;8.674;2023-06-14T05:36:37;17.30;51.70
21770;DHT22;11046;49.558;8.674;2023-06-14T05:39:37;17.40;51.70
21770;DHT22;11046;49.558;8.674;2023-06-14T05:42:38;17.50;51.70
21770;DHT22;11046;49.558;8.674;2023-06-14T05:45:38;17.50;51.80
21770;DHT22;11046;49.558;8.674;2023-06-14T05:48:39;17.50;51.80
21770;DHT22;11046;49.558;8.674;2023-06-14T05:51:40;17.60;51.80
21770;DHT22;11046;49.558;8.674;2023-06-14T05:54:41;17.60;51.90
21770;DHT22;11046;49.558;8.674;2023-06-14T05:57:42;17.70;51.90
21770;DHT22;11046;49.558;8.674;2023-06-14T06:00:43;17.90;51.80
21770;DHT22;11046;49.558;8.674;2023-06-14T06:03:43;18.10;51.70
21770;DHT22;11046;49.558;8.674;2023-06-14T06:06:48;18.20;51.60
21770;DHT22;11046;49.558;8.674;2023-06-14T06:09:48;18.40;51.40
21770;DHT22;11046;49.558;8.674;2023-06-14T06:12:49;18.70;51.10
21770;DHT22;11046;49.558;8.674;2023-06-14T06:15:52;18.80;50.90
21770;DHT22;11046;49.558;8.674;2023-06-14T06:18:53;19.10;50.70
21770;DHT22;11046;49.558;8.674;2023-06-14T06:21:53;19.20;50.50
21770;DHT22;11046;49.558;8.674;2023-06-14T06:24:54;19.50;50.30
21770;DHT22;11046;49.558;8.674;2023-06-14T06:27:55;19.70;50.00
21770;DHT22;11046;49.558;8.674;2023-06-14T06:30:58;19.90;49.70
21770;DHT22;11046;49.558;8.674;2023-06-14T06:33:59;20.20;49.60
21770;DHT22;11046;49.558;8.674;2023-06-14T06:37:00;20.30;49.30
21770;DHT22;11046;49.558;8.674;2023-06-14T06:40:01;20.60;49.20
21770;DHT22;11046;49.558;8.674;2023-06-14T06:43:03;20.80;48.70
21770;DHT22;11046;49.558;8.674;2023-06-14T06:46:03;21.00;48.60
21770;DHT22;11046;49.558;8.674;2023-06-14T06:49:04;21.30;48.30
21770;DHT22;11046;49.558;8.674;2023-06-14T06:52:06;21.60;47.80
21770;DHT22;11046;49.558;8.674;2023-06-14T06:55:07;21.70;47.40
21770;DHT22;11046;49.558;8.674;2023-06-14T06:58:09;21.90;47.00
21770;DHT22;11046;49.558;8.674;2023-06-14T07:01:10;22.00;46.70
21770;DHT22;11046;49.558;8.674;2023-06-14T07:04:10;22.20;46.50
21770;DHT22;11046;49.558;8.674;2023-06-14T07:07:11;22.40;46.20
21770;DHT22;11046;49.558;8.674;2023-06-14T07:10:11;22.50;46.40
21770;DHT22;11046;49.558;8.674;2023-06-14T07:13:12;22.80;46.10
21770;DHT22;11046;49.558;8.674;2023-06-14T07:16:13;23.20;45.60
21770;DHT22;11046;49.558;8.674;2023-06-14T07:19:13;23.30;44.90
21770;DHT22;11046;49.558;8.674;2023-06-14T07:22:14;23.50;44.60
21770;DHT22;11046;49.558;8.674;2023-06-14T07:25:14;23.80;44.30
21770;DHT22;11046;49.558;8.674;2023-06-14T07:28:16;23.90;44.00
21770;DHT22;11046;49.558;8.674;2023-06-14T07:31:17;24.00;43.40
21770;DHT22;11046;49.558;8.674;2023-06-14T07:34:19;24.10;43.20
21770;DHT22;11046;49.558;8.674;2023-06-14T07:37:20;24.30;43.10
21770;DHT22;11046;49.558;8.674;2023-06-14T07:40:20;24.30;42.80
21770;DHT22;11046;49.558;8.674;2023-06-14T07:43:21;24.50;43.10
21770;DHT22;11046;49.558;8.674;2023-06-14T07:46:22;24.90;42.70
21770;DHT22;11046;49.558;8.674;2023-06-14T07:49:22;25.20;42.30
21770;DHT22;11046;49.558;8.674;2023-06-14T07:52:23;25.40;41.90
21770;DHT22;11046;49.558;8.674;2023-06-14T07:55:24;25.50;41.60
21770;DHT22;11046;49.558;8.674;2023-06-14T07:58:25;25.80;41.50
21770;DHT22;11046;49.558;8.674;2023-06-14T08:01:26;26.20;41.00
21770;DHT22;11046;49.558;8.674;2023-06-14T08:04:28;26.40;40.30
21770;DHT22;11046;49.558;8.674;2023-06-14T08:07:28;26.40;39.90
21770;DHT22;11046;49.558;8.674;2023-06-14T08:10:29;26.20;39.90
21770;DHT22;11046;49.558;8.674;2023-06-14T08:13:29;26.40;40.00
21770;DHT22;11046;49.558;8.674;2023-06-14T08:16:30;26.50;39.40
21770;DHT22;11046;49.558;8.674;2023-06-14T08:19:31;26.50;39.00
21770;DHT22;11046;49.558;8.674;2023-06-14T08:22:31;26.40;39.10
21770;DHT22;11046;49.558;8.674;2023-06-14T08:25:34;26.30;39.10
21770;DHT22;11046;49.558;8.674;2023-06-14T08:28:35;26.50;38.90
21770;DHT22;11046;49.558;8.674;2023-06-14T08:31:35;26.80;38.80
21770;DHT22;11046;49.558;8.674;2023-06-14T08:34:36;27.00;39.20
21770;DHT22;11046;49.558;8.674;2023-06-14T08:37:40;27.10;37.90
21770;DHT22;11046;49.558;8.674;2023-06-14T08:40:45;27.30;37.80
21770;DHT22;11046;49.558;8.674;2023-06-14T08:43:48;27.50;37.90
21770;DHT22;11046;49.558;8.674;2023-06-14T08:46:50;27.80;37.60
21770;DHT22;11046;49.558;8.674;2023-06-14T08:49:53;27.90;37.30
21770;DHT22;11046;49.558;8.674;2023-06-14T08:52:59;28.10;37.20
21770;DHT22;11046;49.558;8.674;2023-06-14T08:56:03;28.10;36.80
21770;DHT22;11046;49.558;8.674;2023-06-14T08:59:06;28.40;36.30
21770;DHT22;11046;49.558;8.674;2023-06-14T09:02:07;28.50;36.20
21770;DHT22;11046;49.558;8.674;2023-06-14T09:05:07;28.60;35.90
21770;DHT22;11046;49.558;8.674;2023-06-14T09:08:08;28.40;35.30
21770;DHT22;11046;49.558;8.674;2023-06-14T09:11:12;28.10;35.50
21770;DHT22;11046;49.558;8.674;2023-06-14T09:14:13;28.10;35.60
21770;DHT22;11046;49.558;8.674;2023-06-14T09:17:15;28.30;35.40
21770;DHT22;11046;49.558;8.674;2023-06-14T09:20:16;28.40;35.00
21770;DHT22;11046;49.558;8.674;2023-06-14T09:23:20;28.20;35.10
21770;DHT22;11046;49.558;8.674;2023-06-14T09:26:22;28.20;35.00
21770;DHT22;11046;49.558;8.674;2023-06-14T09:29:23;28.20;34.60
21770;DHT22;11046;49.558;8.674;2023-06-14T09:32:25;28.00;34.50
21770;DHT22;11046;49.558;8.674;2023-06-14T09:35:25;28.30;34.30
21770;DHT22;11046;49.558;8.674;2023-06-14T09:38:28;28.50;34.00
21770;DHT22;11046;49.558;8.674;2023-06-14T09:41:36;28.80;34.00
21770;DHT22;11046;49.558;8.674;2023-06-14T09:44:37;29.00;33.40
21770;DHT22;11046;49.558;8.674;2023-06-14T09:47:38;29.20;33.40
21770;DHT22;11046;49.558;8.674;2023-06-14T09:50:39;29.00;33.40
21770;DHT22;11046;49.558;8.674;2023-06-14T09:53:41;29.20;33.20
21770;DHT22;11046;49.558;8.674;2023-06-14T09:56:47;29.30;33.40
21770;DHT22;11046;49.558;8.674;2023-06-14T09:59:53;29.50;33.30
21770;DHT22;11046;49.558;8.674;2023-06-14T10:02:59;29.50;33.30
21770;DHT22;11046;49.558;8.674;2023-06-14T10:06:03;29.50;32.80
21770;DHT22;11046;49.558;8.674;2023-06-14T10:09:08;29.20;33.10
21770;DHT22;11046;49.558;8.674;2023-06-14T10:12:09;29.30;33.00
21770;DHT22;11046;49.558;8.674;2023-06-14T10:15:20;29.30;33.10
21770;DHT22;11046;49.558;8.674;2023-06-14T10:18:33;29.50;33.10
21770;DHT22;11046;49.558;8.674;2023-06-14T10:21:58;29.80;33.00
21770;DHT22;11046;49.558;8.674;2023-06-14T10:25:01;29.00;32.60
21770;DHT22;11046;49.558;8.674;2023-06-14T10:28:18;28.70;33.20
21770;DHT22;11046;49.558;8.674;2023-06-14T10:31:19;28.70;33.30
21770;DHT22;11046;49.558;8.674;2023-06-14T10:34:25;29.00;33.30
21770;DHT22;11046;49.558;8.674;2023-06-14T10:37:26;29.60;32.80
21770;DHT22;11046;49.558;8.674;2023-06-14T10:40:30;30.00;32.30
21770;DHT22;11046;49.558;8.674;2023-06-14T10:43:31;30.20;31.70
21770;DHT22;11046;49.558;8.674;2023-06-14T10:46:31;29.90;32.40
21770;DHT22;11046;49.558;8.674;2023-06-14T10:49:45;29.40;31.90
21770;DHT22;11046;49.558;8.674;2023-06-14T10:52:49;29.00;32.30
21770;DHT22;11046;49.558;8.674;2023-06-14T10:55:50;29.00;33.00
21770;DHT22;11046;49.558;8.674;2023-06-14T10:58:51;29.30;33.00
21770;DHT22;11046;49.558;8.674;2023-06-14T11:02:20;29.40;32.40
21770;DHT22;11046;49.558;8.674;2023-06-14T11:05:28;29.70;32.20
21770;DHT22;11046;49.558;8.674;2023-06-14T11:11:51;30.00;30.70
21770;DHT22;11046;49.558;8.674;2023-06-14T11:14:54;29.50;31.80
21770;DHT22;11046;49.558;8.674;2023-06-14T11:17:55;29.60;32.20
21770;DHT22;11046;49.558;8.674;2023-06-14T11:20:57;29.70;31.90
21770;DHT22;11046;49.558;8.674;2023-06-14T11:23:58;29.50;31.60
21770;DHT22;11046;49.558;8.674;2023-06-14T11:26:59;29.30;31.60
21770;DHT22;11046;49.558;8.674;2023-06-14T11:30:00;29.00;32.10
21770;DHT22;11046;49.558;8.674;2023-06-14T11:33:00;28.60;31.90
21770;DHT22;11046;49.558;8.674;2023-06-14T11:36:05;28.50;32.30
21770;DHT22;11046;49.558;8.674;2023-06-14T11:39:09;28.90;32.40
21770;DHT22;11046;49.558;8.674;2023-06-14T11:42:14;29.20;32.60
21770;DHT22;11046;49.558;8.674;2023-06-14T11:45:15;29.60;32.20
21770;DHT22;11046;49.558;8.674;2023-06-14T11:48:16;29.40;31.80
21770;DHT22;11046;49.558;8.674;2023-06-14T11:51:16;29.20;31.60
21770;DHT22;11046;49.558;8.674;2023-06-14T11:54:17;29.50;31.80
21770;DHT22;11046;49.558;8.674;2023-06-14T11:57:18;29.40;32.40
21770;DHT22;11046;49.558;8.674;2023-06-14T12:00:19;29.90;31.70
21770;DHT22;11046;49.558;8.674;2023-06-14T12:03:25;30.30;31.50
21770;DHT22;11046;49.558;8.674;2023-06-14T12:06:30;30.20;30.80
21770;DHT22;11046;49.558;8.674;2023-06-14T12:09:33;29.60;31.30
21770;DHT22;11046;49.558;8.674;2023-06-14T12:12:39;29.00;31.00
21770;DHT22;11046;49.558;8.674;2023-06-14T12:15:40;28.90;31.60
21770;DHT22;11046;49.558;8.674;2023-06-14T12:18:41;29.50;31.80
21770;DHT22;11046;49.558;8.674;2023-06-14T12:21:46;29.70;31.50
21770;DHT22;11046;49.558;8.674;2023-06-14T12:24:52;29.70;31.70
21770;DHT22;11046;49.558;8.674;2023-06-14T12:27:57;29.90;31.50
21770;DHT22;11046;49.558;8.674;2023-06-14T12:30:57;29.90;30.70
21770;DHT22;11046;49.558;8.674;2023-06-14T12:33:59;29.50;31.40
21770;DHT22;11046;49.558;8.674;2023-06-14T12:36:59;29.40;31.30
21770;DHT22;11046;49.558;8.674;2023-06-14T12:40:00;29.30;31.60
21770;DHT22;11046;49.558;8.674;2023-06-14T12:43:00;29.10;31.50
21770;DHT22;11046;49.558;8.674;2023-06-14T12:46:01;29.20;31.60
21770;DHT22;11046;49.558;8.674;2023-06-14T12:49:02;29.60;31.40
21770;DHT22;11046;49.558;8.674;2023-06-14T12:52:03;29.70;31.40
21770;DHT22;11046;49.558;8.674;2023-06-14T12:55:06;29.70;31.20
21770;DHT22;11046;49.558;8.674;2023-06-14T12:58:07;29.30;31.40
21770;DHT22;11046;49.558;8.674;2023-06-14T13:01:07;29.00;31.60
21770;DHT22;11046;49.558;8.674;2023-06-14T13:04:08;29.00;31.80
21770;DHT22;11046;49.558;8.674;2023-06-14T13:07:09;28.80;32.00
21770;DHT22;11046;49.558;8.674;2023-06-14T13:10:11;28.90;32.00
21770;DHT22;11046;49.558;8.674;2023-06-14T13:13:11;29.00;31.60
21770;DHT22;11046;49.558;8.674;2023-06-14T13:16:12;28.80;32.70
21770;DHT22;11046;49.558;8.674;2023-06-14T13:19:14;29.00;32.90
21770;DHT22;11046;49.558;8.674;2023-06-14T13:22:15;29.20;32.70
21770;DHT22;11046;49.558;8.674;2023-06-14T13:25:16;29.20;32.10
21770;DHT22;11046;49.558;8.674;2023-06-14T13:28:16;29.00;32.20
21770;DHT22;11046;49.558;8.674;2023-06-14T13:31:17;28.80;32.20
21770;DHT22;11046;49.558;8.674;2023-06-14T13:34:18;28.90;32.10
21770;DHT22;11046;49.558;8.674;2023-06-14T13:37:18;29.00;32.10
21770;DHT22;11046;49.558;8.674;2023-06-14T13:40:19;28.70;32.10
21770;DHT22;11046;49.558;8.674;2023-06-14T13:43:19;28.50;32.60
21770;DHT22;11046;49.558;8.674;2023-06-14T13:46:20;28.60;32.70
21770;DHT22;11046;49.558;8.674;2023-06-14T13:49:20;28.60;32.50
21770;DHT22;11046;49.558;8.674;2023-06-14T13:52:21;28.70;32.60
21770;DHT22;11046;49.558;8.674;2023-06-14T13:55:22;29.00;32.40
21770;DHT22;11046;49.558;8.674;2023-06-14T13:58:22;29.20;32.30
21770;DHT22;11046;49.558;8.674;2023-06-14T14:01:24;29.50;32.40
21770;DHT22;11046;49.558;8.674;2023-06-14T14:04:26;29.90;31.90
21770;DHT22;11046;49.558;8.674;2023-06-14T14:07:26;29.70;31.40
21770;DHT22;11046;49.558;8.674;2023-06-14T14:10:28;29.40;31.30
21770;DHT22;11046;49.558;8.674;2023-06-14T14:13:29;28.80;31.80
21770;DHT22;11046;49.558;8.674;2023-06-14T14:16:30;28.40;32.50
21770;DHT22;11046;49.558;8.674;2023-06-14T14:19:30;28.20;32.80
21770;DHT22;11046;49.558;8.674;2023-06-14T14:22:31;28.20;32.80
21770;DHT22;11046;49.558;8.674;2023-06-14T14:25:32;28.10;32.70
21770;DHT22;11046;49.558;8.674;2023-06-14T14:28:32;28.10;32.80
21770;DHT22;11046;49.558;8.674;2023-06-14T14:31:33;28.10;32.30
21770;DHT22;11046;49.558;8.674;2023-06-14T14:34:34;27.90;32.50
21770;DHT22;11046;49.558;8.674;2023-06-14T14:37:35;28.10;32.70
21770;DHT22;11046;49.558;8.674;2023-06-14T14:40:35;28.30;32.50
21770;DHT22;11046;49.558;8.674;2023-06-14T14:43:36;28.50;33.10
21770;DHT22;11046;49.558;8.674;2023-06-14T14:46:36;28.80;32.30
21770;DHT22;11046;49.558;8.674;2023-06-14T14:49:38;29.00;32.10
21770;DHT22;11046;49.558;8.674;2023-06-14T14:52:38;29.00;32.00
21770;DHT22;11046;49.558;8.674;2023-06-14T14:55:39;29.30;32.20
21770;DHT22;11046;49.558;8.674;2023-06-14T14:58:41;29.50;31.70
21770;DHT22;11046;49.558;8.674;2023-06-14T15:01:42;29.40;31.50
21770;DHT22;11046;49.558;8.674;2023-06-14T15:04:42;29.60;31.60
21770;DHT22;11046;49.558;8.674;2023-06-14T15:07:43;29.40;31.40
21770;DHT22;11046;49.558;8.674;2023-06-14T15:10:45;29.00;31.50
21770;DHT22;11046;49.558;8.674;2023-06-14T15:13:47;28.70;31.90
21770;DHT22;11046;49.558;8.674;2023-06-14T15:16:49;28.80;32.10
21770;DHT22;11046;49.558;8.674;2023-06-14T15:19:50;28.80;31.70
21770;DHT22;11046;49.558;8.674;2023-06-14T15:22:50;28.80;31.90
21770;DHT22;11046;49.558;8.674;2023-06-14T15:25:51;28.80;31.90
21770;DHT22;11046;49.558;8.674;2023-06-14T15:28:52;28.60;32.50
21770;DHT22;11046;49.558;8.674;2023-06-14T15:31:52;28.30;31.80
21770;DHT22;11046;49.558;8.674;2023-06-14T15:34:55;28.20;32.20
21770;DHT22;11046;49.558;8.674;2023-06-14T15:37:55;28.30;32.20
21770;DHT22;11046;49.558;8.674;2023-06-14T15:40:56;28.30;32.20
21770;DHT22;11046;49.558;8.674;2023-06-14T15:43:56;28.20;32.20
21770;DHT22;11046;49.558;8.674;2023-06-14T15:46:57;28.20;32.00
21770;DHT22;11046;49.558;8.674;2023-06-14T15:49:58;28.30;31.90
21770;DHT22;11046;49.558;8.674;2023-06-14T15:52:58;28.40;31.90
21770;DHT22;11046;49.558;8.674;2023-06-14T15:55:59;28.40;32.00
21770;DHT22;11046;49.558;8.674;2023-06-14T15:58:59;28.40;32.00
21770;DHT22;11046;49.558;8.674;2023-06-14T16:02:00;28.20;31.50
21770;DHT22;11046;49.558;8.674;2023-06-14T16:05:00;28.00;31.70
21770;DHT22;11046;49.558;8.674;2023-06-14T16:08:01;27.70;31.70
21770;DHT22;11046;49.558;8.674;2023-06-14T16:11:01;27.50;31.90
21770;DHT22;11046;49.558;8.674;2023-06-14T16:14:02;27.30;32.20
21770;DHT22;11046;49.558;8.674;2023-06-14T16:17:03;27.20;32.60
21770;DHT22;11046;49.558;8.674;2023-06-14T16:20:04;27.30;32.70
21770;DHT22;11046;49.558;8.674;2023-06-14T16:23:04;27.30;32.50
21770;DHT22;11046;49.558;8.674;2023-06-14T16:26:08;27.40;32.50
21770;DHT22;11046;49.558;8.674;2023-06-14T16:29:09;27.50;32.30
21770;DHT22;11046;49.558;8.674;2023-06-14T16:32:10;27.50;32.00
21770;DHT22;11046;49.558;8.674;2023-06-14T16:35:10;27.30;32.10
21770;DHT22;11046;49.558;8.674;2023-06-14T16:38:11;27.10;32.10
21770;DHT22;11046;49.558;8.674;2023-06-14T16:41:11;26.90;32.40
21770;DHT22;11046;49.558;8.674;2023-06-14T16:44:13;26.50;32.80
21770;DHT22;11046;49.558;8.674;2023-06-14T16:47:14;26.30;33.00
21770;DHT22;11046;49.558;8.674;2023-06-14T16:50:15;26.20;33.20
21770;DHT22;11046;49.558;8.674;2023-06-14T16:53:15;26.20;33.30
21770;DHT22;11046;49.558;8.674;2023-06-14T16:56:16;26.00;33.60
21770;DHT22;11046;49.558;8.674;2023-06-14T16:59:17;25.80;33.70
21770;DHT22;11046;49.558;8.674;2023-06-14T17:02:18;25.60;33.90
21770;DHT22;11046;49.558;8.674;2023-06-14T17:05:18;25.70;34.10
21770;DHT22;11046;49.558;8.674;2023-06-14T17:08:19;25.80;33.80
21770;DHT22;11046;49.558;8.674;2023-06-14T17:11:21;25.90;33.80
21770;DHT22;11046;49.558;8.674;2023-06-14T17:14:23;26.00;33.90
21770;DHT22;11046;49.558;8.674;2023-06-14T17:17:23;26.00;33.70
21770;DHT22;11046;49.558;8.674;2023-06-14T17:20:24;26.00;33.70
21770;DHT22;11046;49.558;8.674;2023-06-14T17:23:25;26.00;33.60
21770;DHT22;11046;49.558;8.674;2023-06-14T17:26:26;25.80;33.60
21770;DHT22;11046;49.558;8.674;2023-06-14T17:29:26;25.60;33.70
21770;DHT22;11046;49.558;8.674;2023-06-14T17:32:27;25.40;33.60
21770;DHT22;11046;49.558;8.674;2023-06-14T17:35:28;25.40;34.10
21770;DHT22;11046;49.558;8.674;2023-06-14T17:38:28;25.40;34.50
21770;DHT22;11046;49.558;8.674;2023-06-14T17:41:30;25.20;34.50
21770;DHT22;11046;49.558;8.674;2023-06-14T17:44:30;25.10;34.50
21770;DHT22;11046;49.558;8.674;2023-06-14T17:47:31;25.00;35.10
21770;DHT22;11046;49.558;8.674;2023-06-14T17:50:32;25.00;35.60
21770;DHT22;11046;49.558;8.674;2023-06-14T17:53:34;25.00;35.90
21770;DHT22;11046;49.558;8.674;2023-06-14T17:56:35;25.00;35.60
21770;DHT22;11046;49.558;8.674;2023-06-14T17:59:35;25.10;35.30
21770;DHT22;11046;49.558;8.674;2023-06-14T18:02:36;25.20;35.30
21770;DHT22;11046;49.558;8.674;2023-06-14T18:05:36;25.20;35.30
21770;DHT22;11046;49.558;8.674;2023-06-14T18:08:38;25.20;35.30
21770;DHT22;11046;49.558;8.674;2023-06-14T18:11:38;25.10;35.20
21770;DHT22;11046;49.558;8.674;2023-06-14T18:14:39;25.10;35.20
21770;DHT22;11046;49.558;8.674;2023-06-14T18:17:39;25.00;35.10
21770;DHT22;11046;49.558;8.674;2023-06-14T18:20:40;24.90;35.80
21770;DHT22;11046;49.558;8.674;2023-06-14T18:23:40;24.80;35.30
21770;DHT22;11046;49.558;8.674;2023-06-14T18:26:41;24.70;35.50
21770;DHT22;11046;49.558;8.674;2023-06-14T18:29:41;24.70;35.80
21770;DHT22;11046;49.558;8.674;2023-06-14T18:32:43;24.50;35.80
21770;DHT22;11046;49.558;8.674;2023-06-14T18:35:47;24.50;35.90
21770;DHT22;11046;49.558;8.674;2023-06-14T18:38:47;24.40;36.00
21770;DHT22;11046;49.558;8.674;2023-06-14T18:41:48;24.30;36.20
21770;DHT22;11046;49.558;8.674;2023-06-14T18:44:49;24.30;36.40
21770;DHT22;11046;49.558;8.674;2023-06-14T18:47:49;24.10;36.60
21770;DHT22;11046;49.558;8.674;2023-06-14T18:50:50;24.00;36.80
21770;DHT22;11046;49.558;8.674;2023-06-14T18:53:50;23.90;37.40
21770;DHT22;11046;49.558;8.674;2023-06-14T18:56:51;23.80;37.70
21770;DHT22;11046;49.558;8.674;2023-06-14T18:59:51;23.60;38.00
21770;DHT22;11046;49.558;8.674;2023-06-14T19:02:52;23.40;38.40
21770;DHT22;11046;49.558;8.674;2023-06-14T19:05:53;23.20;38.80
21770;DHT22;11046;49.558;8.674;2023-06-14T19:08:56;23.10;39.00
21770;DHT22;11046;49.558;8.674;2023-06-14T19:11:57;23.00;39.10
21770;DHT22;11046;49.558;8.674;2023-06-14T19:14:58;22.80;39.20
21770;DHT22;11046;49.558;8.674;2023-06-14T19:17:59;22.60;39.50